createdAt,value
2018-07-20T00:00:59.353Z,1010.52
2018-07-20T00:01:59.335Z,1010.55
2018-07-20T00:02:59.319Z,1010.52
2018-07-20T00:03:59.314Z,1010.52
2018-07-20T00:04:59.298Z,1010.53
2018-07-20T00:05:59.284Z,1010.48
2018-07-20T00:06:59.269Z,1010.54
2018-07-20T00:07:59.298Z,1010.54
2018-07-20T00:08:59.245Z,1010.57
2018-07-20T00:09:59.232Z,1010.57
2018-07-20T00:10:59.222Z,1010.54
2018-07-20T00:11:59.207Z,1010.56
2018-07-20T00:12:59.199Z,1010.54
2018-07-20T00:13:59.183Z,1010.53
2018-07-20T00:14:59.170Z,1010.55
2018-07-20T00:15:59.160Z,1010.54
2018-07-20T00:16:59.152Z,1010.55
2018-07-20T00:17:59.131Z,1010.51
2018-07-20T00:18:59.121Z,1010.54
2018-07-20T00:19:59.112Z,1010.52
2018-07-20T00:20:59.093Z,1010.51
2018-07-20T00:21:59.231Z,1010.50
2018-07-20T00:22:59.084Z,1010.52
2018-07-20T00:23:59.068Z,1010.51
2018-07-20T00:24:59.132Z,1010.48
2018-07-20T00:25:59.032Z,1010.46
2018-07-20T00:26:59.020Z,1010.49
2018-07-20T00:27:59.006Z,1010.48
2018-07-20T00:28:58.994Z,1010.47
2018-07-20T00:29:58.979Z,1010.44
2018-07-20T00:30:58.970Z,1010.47
2018-07-20T00:31:58.956Z,1010.45
2018-07-20T00:32:58.942Z,1010.44
2018-07-20T00:33:58.947Z,1010.41
2018-07-20T00:34:58.919Z,1010.45
2018-07-20T00:35:58.906Z,1010.41
2018-07-20T00:36:58.893Z,1010.37
2018-07-20T00:37:58.880Z,1010.37
2018-07-20T00:38:58.868Z,1010.38
2018-07-20T00:39:58.855Z,1010.34
2018-07-20T00:40:58.840Z,1010.34
2018-07-20T00:41:58.840Z,1010.39
2018-07-20T00:42:58.817Z,1010.31
2018-07-20T00:43:58.807Z,1010.32
2018-07-20T00:44:58.793Z,1010.30
2018-07-20T00:45:58.896Z,1010.26
2018-07-20T00:46:58.769Z,1010.22
2018-07-20T00:47:58.754Z,1010.22
2018-07-20T00:48:58.807Z,1010.22
2018-07-20T00:49:58.727Z,1010.22
2018-07-20T00:50:58.717Z,1010.19
2018-07-20T00:51:58.756Z,1010.18
2018-07-20T00:52:58.691Z,1010.19
2018-07-20T00:53:58.680Z,1010.15
2018-07-20T00:54:58.682Z,1010.15
2018-07-20T00:55:58.653Z,1010.16
2018-07-20T00:56:58.645Z,1010.15
2018-07-20T00:57:58.628Z,1010.11
2018-07-20T00:58:58.615Z,1010.12
2018-07-20T00:59:58.604Z,1010.09
2018-07-20T01:00:58.589Z,1010.13
2018-07-20T01:01:58.578Z,1010.09
2018-07-20T01:02:58.564Z,1010.08
2018-07-20T01:03:58.548Z,1010.09
2018-07-20T01:04:58.672Z,1010.07
2018-07-20T01:05:58.533Z,1010.01
2018-07-20T01:06:58.511Z,1010.02
2018-07-20T01:07:58.497Z,1010.02
2018-07-20T01:08:58.486Z,1009.98
2018-07-20T01:09:58.472Z,1009.97
2018-07-20T01:10:58.463Z,1009.95
2018-07-20T01:11:58.448Z,1009.97
2018-07-20T01:12:58.444Z,1009.90
2018-07-20T01:13:58.427Z,1009.91
2018-07-20T01:14:58.415Z,1009.87
2018-07-20T01:15:58.394Z,1009.92
2018-07-20T01:16:58.389Z,1009.93
2018-07-20T01:17:58.371Z,1009.97
2018-07-20T01:18:58.361Z,1009.93
2018-07-20T01:19:58.351Z,1009.92
2018-07-20T01:20:58.385Z,1009.94
2018-07-20T01:21:58.322Z,1009.92
2018-07-20T01:22:58.311Z,1009.90
2018-07-20T01:23:58.294Z,1009.93
2018-07-20T01:24:58.281Z,1009.94
2018-07-20T01:25:58.271Z,1009.89
2018-07-20T01:26:58.255Z,1009.90
2018-07-20T01:27:58.240Z,1009.89
2018-07-20T01:28:58.314Z,1009.90
2018-07-20T01:29:58.215Z,1009.94
2018-07-20T01:30:58.202Z,1009.89
2018-07-20T01:31:58.289Z,1009.84
2018-07-20T01:32:58.176Z,1009.88
2018-07-20T01:33:58.165Z,1009.89
2018-07-20T01:34:58.148Z,1009.87
2018-07-20T01:35:58.139Z,1009.92
2018-07-20T01:36:58.121Z,1009.92
2018-07-20T01:37:58.112Z,1009.91
2018-07-20T01:38:58.099Z,1009.89
2018-07-20T01:39:58.091Z,1009.94
2018-07-20T01:40:58.071Z,1009.95
2018-07-20T01:41:58.059Z,1009.92
2018-07-20T01:42:58.045Z,1009.96
2018-07-20T01:43:58.030Z,1009.89
2018-07-20T01:44:58.026Z,1009.94
2018-07-20T01:45:58.006Z,1009.94
2018-07-20T01:46:57.993Z,1009.92
2018-07-20T01:47:58.079Z,1009.96
2018-07-20T01:48:57.966Z,1009.88
2018-07-20T01:49:57.957Z,1009.89
2018-07-20T01:50:57.942Z,1009.91
2018-07-20T01:51:57.938Z,1009.90
2018-07-20T01:52:57.912Z,1009.89
2018-07-20T01:53:57.900Z,1009.90
2018-07-20T01:54:57.886Z,1009.90
2018-07-20T01:55:57.872Z,1009.93
2018-07-20T01:56:57.859Z,1009.95
2018-07-20T01:57:57.846Z,1009.91
2018-07-20T01:58:58.655Z,1009.90
2018-07-20T01:59:57.821Z,1009.95
2018-07-20T02:00:57.816Z,1009.91
2018-07-20T02:01:57.797Z,1009.92
2018-07-20T02:02:57.782Z,1009.89
2018-07-20T02:03:57.840Z,1009.93
2018-07-20T02:04:57.753Z,1009.92
2018-07-20T02:05:57.741Z,1009.92
2018-07-20T02:06:57.788Z,1009.94
2018-07-20T02:07:57.717Z,1009.95
2018-07-20T02:08:57.701Z,1009.89
2018-07-20T02:09:57.692Z,1009.94
2018-07-20T02:10:57.678Z,1009.93
2018-07-20T02:11:57.671Z,1009.88
2018-07-20T02:12:57.652Z,1009.86
2018-07-20T02:13:57.643Z,1009.89
2018-07-20T02:14:57.621Z,1009.85
2018-07-20T02:15:57.609Z,1009.87
2018-07-20T02:16:57.597Z,1009.86
2018-07-20T02:17:57.588Z,1009.86
2018-07-20T02:18:57.569Z,1009.86
2018-07-20T02:19:57.554Z,1009.86
2018-07-20T02:20:57.545Z,1009.86
2018-07-20T02:21:57.528Z,1009.84
2018-07-20T02:22:57.515Z,1009.85
2018-07-20T02:23:57.500Z,1009.82
2018-07-20T02:24:57.495Z,1009.86
2018-07-20T02:25:57.474Z,1009.83
2018-07-20T02:26:57.461Z,1009.79
2018-07-20T02:27:57.448Z,1009.81
2018-07-20T02:28:57.435Z,1009.81
2018-07-20T02:29:57.424Z,1009.75
2018-07-20T02:30:57.453Z,1009.74
2018-07-20T02:31:57.393Z,1009.73
2018-07-20T02:33:41.253Z,1009.73
2018-07-20T02:34:41.237Z,1009.72
2018-07-20T02:35:41.222Z,1009.71
2018-07-20T02:36:41.213Z,1009.69
2018-07-20T02:37:41.197Z,1009.69
2018-07-20T02:38:41.182Z,1009.68
2018-07-20T02:39:41.172Z,1009.66
2018-07-20T02:40:41.156Z,1009.61
2018-07-20T02:41:41.150Z,1009.60
2018-07-20T02:42:41.126Z,1009.63
2018-07-20T02:43:41.131Z,1009.59
2018-07-20T02:44:41.101Z,1009.60
2018-07-20T02:45:41.087Z,1009.61
2018-07-20T02:46:41.073Z,1009.57
2018-07-20T02:47:41.213Z,1009.56
2018-07-20T02:48:41.046Z,1009.57
2018-07-20T02:49:41.034Z,1009.56
2018-07-20T02:50:41.124Z,1009.58
2018-07-20T02:51:41.004Z,1009.57
2018-07-20T02:52:40.990Z,1009.54
2018-07-20T02:53:40.984Z,1009.55
2018-07-20T02:54:40.964Z,1009.57
2018-07-20T02:55:40.951Z,1009.56
2018-07-20T02:56:40.936Z,1009.56
2018-07-20T02:57:40.924Z,1009.57
2018-07-20T02:58:40.911Z,1009.56
2018-07-20T02:59:40.896Z,1009.56
2018-07-20T03:00:40.897Z,1009.56
2018-07-20T03:01:40.867Z,1009.54
2018-07-20T03:02:40.855Z,1009.55
2018-07-20T03:03:40.857Z,1009.55
2018-07-20T03:04:40.826Z,1009.51
2018-07-20T03:05:40.810Z,1009.57
2018-07-20T03:06:40.898Z,1009.51
2018-07-20T03:07:40.785Z,1009.51
2018-07-20T03:08:40.768Z,1009.49
2018-07-20T03:09:43.381Z,1009.50
2018-07-20T03:10:40.742Z,1009.55
2018-07-20T03:13:43.289Z,1009.55
2018-07-20T03:14:10.063Z,1009.49
2018-07-20T03:15:10.147Z,1009.55
2018-07-20T03:16:10.033Z,1009.52
2018-07-20T03:17:10.023Z,1009.51
2018-07-20T03:18:10.110Z,1009.49
2018-07-20T03:19:09.996Z,1009.47
2018-07-20T03:20:09.978Z,1009.49
2018-07-20T03:21:09.973Z,1009.53
2018-07-20T03:22:09.957Z,1009.50
2018-07-20T03:23:09.938Z,1009.50
2018-07-20T03:24:09.922Z,1009.51
2018-07-20T03:25:09.907Z,1009.50
2018-07-20T03:26:09.942Z,1009.47
2018-07-20T03:27:09.879Z,1009.44
2018-07-20T03:28:09.868Z,1009.44
2018-07-20T03:29:09.864Z,1009.44
2018-07-20T03:30:09.850Z,1009.47
2018-07-20T03:31:09.822Z,1009.43
2018-07-20T03:32:09.807Z,1009.40
2018-07-20T03:33:09.798Z,1009.43
2018-07-20T03:34:09.780Z,1009.46
2018-07-20T03:35:09.767Z,1009.42
2018-07-20T03:36:09.753Z,1009.40
2018-07-20T03:37:09.738Z,1009.42
2018-07-20T03:38:09.725Z,1009.40
2018-07-20T03:39:09.724Z,1009.42
2018-07-20T03:40:09.695Z,1009.44
2018-07-20T03:41:09.682Z,1009.44
2018-07-20T03:42:09.774Z,1009.43
2018-07-20T03:43:09.664Z,1009.44
2018-07-20T03:44:09.641Z,1009.42
2018-07-20T03:45:09.624Z,1009.44
2018-07-20T03:46:09.609Z,1009.45
2018-07-20T03:47:09.595Z,1009.42
2018-07-20T03:48:42.803Z,1009.42
2018-07-20T03:49:09.568Z,1009.44
2018-07-20T03:50:09.556Z,1009.40
2018-07-20T03:51:09.541Z,1009.40
2018-07-20T03:52:09.571Z,1009.40
2018-07-20T03:53:09.515Z,1009.37
2018-07-20T03:54:09.497Z,1009.40
2018-07-20T03:55:09.485Z,1009.43
2018-07-20T03:56:09.477Z,1009.40
2018-07-20T03:57:09.454Z,1009.39
2018-07-20T03:58:09.441Z,1009.33
2018-07-20T03:59:09.427Z,1009.38
2018-07-20T04:00:09.422Z,1009.34
2018-07-20T04:01:09.399Z,1009.34
2018-07-20T04:02:09.392Z,1009.35
2018-07-20T04:03:09.372Z,1009.32
2018-07-20T04:04:09.358Z,1009.34
2018-07-20T04:05:09.355Z,1009.30
2018-07-20T04:06:09.332Z,1009.34
2018-07-20T04:07:09.320Z,1009.33
2018-07-20T04:08:09.304Z,1009.34
2018-07-20T04:09:09.289Z,1009.33
2018-07-20T04:10:09.299Z,1009.33
2018-07-20T04:11:09.258Z,1009.37
2018-07-20T04:12:09.253Z,1009.34
2018-07-20T04:13:09.233Z,1009.32
2018-07-20T04:14:09.343Z,1009.32
2018-07-20T04:15:09.201Z,1009.30
2018-07-20T04:16:09.190Z,1009.31
2018-07-20T04:17:09.175Z,1009.30
2018-07-20T04:18:09.161Z,1009.36
2018-07-20T04:19:09.147Z,1009.32
2018-07-20T04:20:09.141Z,1009.37
2018-07-20T04:21:09.120Z,1009.39
2018-07-20T04:22:09.116Z,1009.39
2018-07-20T04:23:09.090Z,1009.35
2018-07-20T04:24:09.081Z,1009.41
2018-07-20T04:25:09.117Z,1009.35
2018-07-20T04:26:09.056Z,1009.36
2018-07-20T04:27:09.037Z,1009.34
2018-07-20T04:28:09.025Z,1009.30
2018-07-20T04:29:09.012Z,1009.35
2018-07-20T04:30:08.994Z,1009.29
2018-07-20T04:31:08.992Z,1009.26
2018-07-20T04:32:08.970Z,1009.26
2018-07-20T04:33:08.952Z,1009.25
2018-07-20T04:34:08.942Z,1009.27
2018-07-20T04:35:08.925Z,1009.25
2018-07-20T04:36:08.915Z,1009.26
2018-07-20T04:37:08.895Z,1009.25
2018-07-20T04:38:08.975Z,1009.24
2018-07-20T04:39:08.869Z,1009.24
2018-07-20T04:40:08.854Z,1009.21
2018-07-20T04:41:08.867Z,1009.23
2018-07-20T04:42:08.829Z,1009.22
2018-07-20T04:43:08.816Z,1009.22
2018-07-20T04:44:08.801Z,1009.23
2018-07-20T04:45:08.788Z,1009.23
2018-07-20T04:46:08.775Z,1009.24
2018-07-20T04:47:08.757Z,1009.28
2018-07-20T04:48:08.746Z,1009.25
2018-07-20T04:49:08.731Z,1009.30
2018-07-20T04:50:08.718Z,1009.30
2018-07-20T04:51:08.708Z,1009.34
2018-07-20T04:52:08.696Z,1009.34
2018-07-20T04:53:08.677Z,1009.39
2018-07-20T04:54:08.743Z,1009.36
2018-07-20T04:55:08.650Z,1009.39
2018-07-20T04:56:08.647Z,1009.35
2018-07-20T04:57:08.621Z,1009.36
2018-07-20T04:58:08.608Z,1009.40
2018-07-20T04:59:08.598Z,1009.38
2018-07-20T05:00:08.598Z,1009.38
2018-07-20T05:01:08.570Z,1009.38
2018-07-20T05:02:08.557Z,1009.40
2018-07-20T05:03:08.554Z,1009.38
2018-07-20T05:04:08.528Z,1009.41
2018-07-20T05:05:08.517Z,1009.42
2018-07-20T05:06:08.514Z,1009.40
2018-07-20T05:07:08.488Z,1009.42
2018-07-20T05:08:08.476Z,1009.42
2018-07-20T05:09:08.463Z,1009.43
2018-07-20T05:10:08.546Z,1009.42
2018-07-20T05:11:08.435Z,1009.43
2018-07-20T05:12:08.472Z,1009.35
2018-07-20T05:13:08.419Z,1009.37
2018-07-20T05:14:08.395Z,1009.38
2018-07-20T05:15:08.386Z,1009.34
2018-07-20T05:16:08.381Z,1009.35
2018-07-20T05:17:08.365Z,1009.38
2018-07-20T05:18:08.485Z,1009.33
2018-07-20T05:19:08.333Z,1009.31
2018-07-20T05:20:08.321Z,1009.32
2018-07-20T05:21:08.305Z,1009.27
2018-07-20T05:22:08.302Z,1009.26
2018-07-20T05:23:08.277Z,1009.25
2018-07-20T05:24:08.324Z,1009.25
2018-07-20T05:25:08.258Z,1009.30
2018-07-20T05:26:08.253Z,1009.31
2018-07-20T05:27:08.232Z,1009.27
2018-07-20T05:28:08.213Z,1009.30
2018-07-20T05:29:08.204Z,1009.32
2018-07-20T05:30:08.188Z,1009.31
2018-07-20T05:31:08.178Z,1009.29
2018-07-20T05:32:08.165Z,1009.34
2018-07-20T05:33:08.149Z,1009.35
2018-07-20T05:34:08.142Z,1009.34
2018-07-20T05:35:08.141Z,1009.36
2018-07-20T05:36:08.117Z,1009.32
2018-07-20T05:37:08.148Z,1009.31
2018-07-20T05:38:08.102Z,1009.30
2018-07-20T05:39:08.082Z,1009.30
2018-07-20T05:40:08.072Z,1009.32
2018-07-20T05:41:08.047Z,1009.30
2018-07-20T05:42:08.035Z,1009.34
2018-07-20T05:43:08.022Z,1009.33
2018-07-20T05:44:08.019Z,1009.33
2018-07-20T05:45:07.997Z,1009.69
2018-07-20T05:46:07.998Z,1009.93
2018-07-20T05:47:07.973Z,1010.01
2018-07-20T05:48:07.960Z,1010.13
2018-07-20T05:49:07.966Z,1010.16
2018-07-20T05:50:08.053Z,1010.24
2018-07-20T05:51:07.924Z,1010.27
2018-07-20T05:52:07.910Z,1010.27
2018-07-20T05:53:07.896Z,1010.22
2018-07-20T05:54:07.893Z,1010.22
2018-07-20T05:55:07.876Z,1010.04
2018-07-20T05:56:07.873Z,1009.93
2018-07-20T05:57:07.859Z,1009.85
2018-07-20T05:58:07.842Z,1009.79
2018-07-20T05:59:07.832Z,1009.84
2018-07-20T06:00:07.820Z,1009.83
2018-07-20T06:01:07.818Z,1009.86
2018-07-20T06:02:07.800Z,1009.81
2018-07-20T06:03:07.793Z,1009.83
2018-07-20T06:04:07.844Z,1009.87
2018-07-20T06:05:07.780Z,1009.85
2018-07-20T06:06:07.913Z,1009.85
2018-07-20T06:07:07.790Z,1009.82
2018-07-20T06:08:07.766Z,1009.81
2018-07-20T06:09:07.740Z,1009.81
2018-07-20T06:10:07.729Z,1009.81
2018-07-20T06:11:07.726Z,1009.77
2018-07-20T06:12:07.709Z,1009.75
2018-07-20T06:13:07.700Z,1009.75
2018-07-20T06:14:07.850Z,1009.74
2018-07-20T06:15:07.686Z,1009.56
2018-07-20T06:16:07.680Z,1009.58
2018-07-20T06:17:07.668Z,1009.57
2018-07-20T06:18:07.670Z,1009.50
2018-07-20T06:19:07.652Z,1009.75
2018-07-20T06:20:07.645Z,1009.78
2018-07-20T06:21:07.637Z,1009.79
2018-07-20T06:22:07.628Z,1009.80
2018-07-20T06:23:07.619Z,1009.77
2018-07-20T06:24:07.612Z,1009.74
2018-07-20T06:25:07.602Z,1009.75
2018-07-20T06:26:07.603Z,1009.76
2018-07-20T06:27:07.591Z,1009.72
2018-07-20T06:28:07.582Z,1009.74
2018-07-20T06:29:07.572Z,1009.75
2018-07-20T06:30:07.598Z,1009.74
2018-07-20T06:31:07.568Z,1009.76
2018-07-20T06:32:07.552Z,1009.75
2018-07-20T06:33:07.547Z,1009.76
2018-07-20T06:34:07.537Z,1009.78
2018-07-20T06:35:07.535Z,1009.80
2018-07-20T06:36:07.531Z,1009.78
2018-07-20T06:37:07.636Z,1009.74
2018-07-20T06:38:07.513Z,1009.73
2018-07-20T06:39:07.516Z,1009.69
2018-07-20T06:40:07.550Z,1009.63
2018-07-20T06:41:07.496Z,1009.54
2018-07-20T06:42:07.487Z,1009.47
2018-07-20T06:43:07.482Z,1009.47
2018-07-20T06:44:07.477Z,1009.57
2018-07-20T06:45:07.479Z,1009.59
2018-07-20T06:46:07.475Z,1009.65
2018-07-20T06:47:07.469Z,1009.65
2018-07-20T06:48:07.458Z,1009.62
2018-07-20T06:49:07.456Z,1009.72
2018-07-20T06:50:07.444Z,1009.63
2018-07-20T06:51:07.438Z,1009.67
2018-07-20T06:52:07.440Z,1009.63
2018-07-20T06:53:07.537Z,1009.59
2018-07-20T06:54:07.417Z,1009.56
2018-07-20T06:55:07.412Z,1009.57
2018-07-20T06:56:07.420Z,1009.54
2018-07-20T06:57:07.405Z,1009.52
2018-07-20T06:58:07.395Z,1009.62
2018-07-20T06:59:07.399Z,1009.63
2018-07-20T07:00:07.386Z,1009.67
2018-07-20T07:01:07.376Z,1009.68
2018-07-20T07:02:07.398Z,1009.68
2018-07-20T07:03:07.365Z,1009.69
2018-07-20T07:04:07.360Z,1009.64
2018-07-20T07:05:07.367Z,1009.69
2018-07-20T07:06:07.356Z,1009.64
2018-07-20T07:07:07.346Z,1009.64
2018-07-20T07:08:07.341Z,1009.58
2018-07-20T07:09:07.334Z,1009.57
2018-07-20T07:10:07.330Z,1009.51
2018-07-20T07:11:07.332Z,1009.48
2018-07-20T07:12:07.321Z,1009.47
2018-07-20T07:13:07.325Z,1009.49
2018-07-20T07:14:07.315Z,1009.53
2018-07-20T07:15:07.369Z,1009.67
2018-07-20T07:16:07.302Z,1009.71
2018-07-20T07:17:07.302Z,1009.68
2018-07-20T07:18:07.291Z,1009.68
2018-07-20T07:19:07.295Z,1009.70
2018-07-20T07:20:07.288Z,1009.71
2018-07-20T07:21:07.278Z,1009.69
2018-07-20T07:22:07.304Z,1009.74
2018-07-20T07:23:07.269Z,1009.69
2018-07-20T07:24:07.420Z,1009.73
2018-07-20T07:25:07.262Z,1009.67
2018-07-20T07:26:07.256Z,1009.61
2018-07-20T07:27:07.304Z,1009.61
2018-07-20T07:28:07.251Z,1009.64
2018-07-20T07:29:07.271Z,1009.63
2018-07-20T07:30:07.243Z,1009.53
2018-07-20T07:31:07.240Z,1009.52
2018-07-20T07:32:07.250Z,1009.50
2018-07-20T07:33:07.240Z,1009.46
2018-07-20T07:34:07.236Z,1009.45
2018-07-20T07:35:07.229Z,1009.50
2018-07-20T07:36:07.224Z,1009.43
2018-07-20T07:37:07.231Z,1009.46
2018-07-20T07:38:07.219Z,1009.51
2018-07-20T07:39:07.215Z,1009.51
2018-07-20T07:40:07.216Z,1009.46
2018-07-20T07:41:07.210Z,1009.43
2018-07-20T07:42:07.238Z,1009.44
2018-07-20T07:43:07.204Z,1009.44
2018-07-20T07:44:07.194Z,1009.40
2018-07-20T07:45:07.190Z,1009.38
2018-07-20T07:46:07.187Z,1009.38
2018-07-20T07:47:07.189Z,1009.51
2018-07-20T07:48:07.178Z,1009.45
2018-07-20T07:49:07.177Z,1009.38
2018-07-20T07:50:07.170Z,1009.35
2018-07-20T07:51:07.162Z,1009.36
2018-07-20T07:52:07.165Z,1009.43
2018-07-20T07:53:07.225Z,1009.43
2018-07-20T07:54:07.161Z,1009.45
2018-07-20T07:55:07.178Z,1009.48
2018-07-20T07:56:07.224Z,1009.54
2018-07-20T07:57:07.128Z,1009.52
2018-07-20T07:58:07.129Z,1009.50
2018-07-20T07:59:07.117Z,1009.47
2018-07-20T08:00:07.117Z,1009.44
2018-07-20T08:01:07.111Z,1009.40
2018-07-20T08:02:07.110Z,1009.37
2018-07-20T08:03:07.124Z,1009.38
2018-07-20T08:04:07.092Z,1009.40
2018-07-20T08:05:07.086Z,1009.42
2018-07-20T08:06:07.081Z,1009.51
2018-07-20T08:07:07.077Z,1009.49
2018-07-20T08:08:07.081Z,1009.53
2018-07-20T08:09:07.067Z,1009.54
2018-07-20T08:10:07.279Z,1009.51
2018-07-20T08:11:07.056Z,1009.42
2018-07-20T08:12:07.052Z,1009.39
2018-07-20T08:13:07.063Z,1009.33
2018-07-20T08:14:07.246Z,1009.35
2018-07-20T08:15:07.044Z,1009.30
2018-07-20T08:16:07.036Z,1009.29
2018-07-20T08:17:07.043Z,1009.26
2018-07-20T08:18:07.025Z,1009.23
2018-07-20T08:19:07.026Z,1009.22
2018-07-20T08:20:07.014Z,1009.19
2018-07-20T08:21:07.009Z,1009.17
2018-07-20T08:22:07.005Z,1009.15
2018-07-20T08:23:07.007Z,1009.16
2018-07-20T08:24:06.995Z,1009.17
2018-07-20T08:25:06.994Z,1009.16
2018-07-20T08:26:06.985Z,1009.12
2018-07-20T08:27:06.983Z,1009.14
2018-07-20T08:28:06.977Z,1009.13
2018-07-20T08:29:06.970Z,1009.13
2018-07-20T08:30:06.972Z,1009.11
2018-07-20T08:31:06.959Z,1009.17
2018-07-20T08:32:06.955Z,1009.14
2018-07-20T08:33:06.945Z,1009.13
2018-07-20T08:34:06.957Z,1009.12
2018-07-20T08:35:06.941Z,1009.13
2018-07-20T08:36:06.929Z,1009.13
2018-07-20T08:37:06.922Z,1009.14
2018-07-20T08:38:06.924Z,1009.11
2018-07-20T08:39:06.913Z,1009.13
2018-07-20T08:40:06.916Z,1009.11
2018-07-20T08:41:06.962Z,1009.08
2018-07-20T08:42:06.893Z,1009.13
2018-07-20T08:43:06.906Z,1009.10
2018-07-20T08:44:06.891Z,1009.08
2018-07-20T08:45:06.876Z,1009.06
2018-07-20T08:46:06.865Z,1009.07
2018-07-20T08:47:06.862Z,1009.05
2018-07-20T08:48:06.853Z,1009.06
2018-07-20T08:49:06.845Z,1008.99
2018-07-20T08:50:06.846Z,1009.03
2018-07-20T08:51:06.836Z,1009.04
2018-07-20T08:52:06.839Z,1009.02
2018-07-20T08:53:06.823Z,1008.99
2018-07-20T08:54:06.916Z,1009.01
2018-07-20T08:55:06.811Z,1009.00
2018-07-20T08:56:06.800Z,1008.99
2018-07-20T08:57:06.803Z,1008.94
2018-07-20T08:58:06.791Z,1008.98
2018-07-20T08:59:06.829Z,1008.97
2018-07-20T09:00:06.824Z,1008.99
2018-07-20T09:01:06.883Z,1009.03
2018-07-20T09:02:06.777Z,1009.00
2018-07-20T09:03:06.756Z,1009.00
2018-07-20T09:04:06.751Z,1009.00
2018-07-20T09:05:06.753Z,1009.01
2018-07-20T09:06:06.761Z,1008.98
2018-07-20T09:07:06.733Z,1008.99
2018-07-20T09:08:06.731Z,1008.94
2018-07-20T09:09:06.721Z,1008.92
2018-07-20T09:10:06.714Z,1008.96
2018-07-20T09:11:06.712Z,1008.95
2018-07-20T09:12:06.719Z,1008.93
2018-07-20T09:13:06.697Z,1008.92
2018-07-20T09:14:06.705Z,1008.92
2018-07-20T09:15:06.690Z,1008.94
2018-07-20T09:16:06.680Z,1008.91
2018-07-20T09:17:06.675Z,1008.88
2018-07-20T09:18:06.684Z,1008.89
2018-07-20T09:19:06.666Z,1008.92
2018-07-20T09:20:06.659Z,1008.90
2018-07-20T09:21:06.705Z,1008.88
2018-07-20T09:22:06.644Z,1008.88
2018-07-20T09:23:06.640Z,1008.87
2018-07-20T09:24:06.639Z,1008.89
2018-07-20T09:25:06.629Z,1008.96
2018-07-20T09:26:06.627Z,1009.08
2018-07-20T09:27:06.626Z,1008.84
2018-07-20T09:28:06.620Z,1009.03
2018-07-20T09:29:06.604Z,1009.04
2018-07-20T09:30:06.698Z,1008.99
2018-07-20T09:31:06.592Z,1009.06
2018-07-20T09:32:06.589Z,1009.12
2018-07-20T09:33:06.592Z,1009.14
2018-07-20T09:34:06.642Z,1009.10
2018-07-20T09:35:06.595Z,1008.83
2018-07-20T09:36:06.568Z,1008.85
2018-07-20T09:37:06.560Z,1008.92
2018-07-20T09:38:06.558Z,1008.89
2018-07-20T09:39:06.550Z,1008.85
2018-07-20T09:40:06.556Z,1008.91
2018-07-20T09:41:06.542Z,1008.82
2018-07-20T09:42:06.547Z,1008.80
2018-07-20T09:43:06.539Z,1008.77
2018-07-20T09:44:06.543Z,1008.77
2018-07-20T09:45:06.527Z,1008.77
2018-07-20T09:46:06.513Z,1008.88
2018-07-20T09:47:06.519Z,1008.77
2018-07-20T09:48:06.506Z,1008.83
2018-07-20T09:49:06.503Z,1008.84
2018-07-20T09:50:06.901Z,1008.83
2018-07-20T09:51:06.507Z,1008.88
2018-07-20T09:52:06.503Z,1008.86
2018-07-20T09:53:06.489Z,1008.80
2018-07-20T09:54:06.482Z,1008.79
2018-07-20T09:55:06.496Z,1008.82
2018-07-20T09:56:06.476Z,1008.79
2018-07-20T09:57:06.471Z,1008.86
2018-07-20T09:58:06.477Z,1008.78
2018-07-20T09:59:06.471Z,1008.76
2018-07-20T10:00:06.464Z,1008.89
2018-07-20T10:01:06.453Z,1008.76
2018-07-20T10:02:06.452Z,1008.82
2018-07-20T10:03:06.454Z,1008.76
2018-07-20T10:04:06.571Z,1008.90
2018-07-20T10:05:06.532Z,1008.74
2018-07-20T10:06:06.439Z,1008.77
2018-07-20T10:07:06.437Z,1008.73
2018-07-20T10:08:06.441Z,1008.73
2018-07-20T10:09:06.434Z,1008.71
2018-07-20T10:10:06.433Z,1008.76
2018-07-20T10:11:06.429Z,1008.82
2018-07-20T10:12:06.433Z,1008.87
2018-07-20T10:13:06.426Z,1008.84
2018-07-20T10:14:06.423Z,1008.83
2018-07-20T10:15:06.426Z,1008.90
2018-07-20T10:16:06.430Z,1008.84
2018-07-20T10:17:06.492Z,1008.78
2018-07-20T10:18:06.423Z,1008.80
2018-07-20T10:19:06.493Z,1008.78
2018-07-20T10:20:06.422Z,1008.75
2018-07-20T10:21:06.423Z,1008.74
2018-07-20T10:22:06.423Z,1008.79
2018-07-20T10:23:06.426Z,1008.77
2018-07-20T10:24:06.429Z,1008.72
2018-07-20T10:25:06.427Z,1008.72
2018-07-20T10:26:06.440Z,1008.70
2018-07-20T10:27:06.482Z,1008.67
2018-07-20T10:28:06.439Z,1008.67
2018-07-20T10:29:06.449Z,1008.64
2018-07-20T10:30:06.492Z,1008.58
2018-07-20T10:31:06.453Z,1008.62
2018-07-20T10:32:06.456Z,1008.57
2018-07-20T10:33:06.453Z,1008.60
2018-07-20T10:34:06.457Z,1008.57
2018-07-20T10:35:06.461Z,1008.56
2018-07-20T10:36:06.466Z,1008.54
2018-07-20T10:37:06.473Z,1008.50
2018-07-20T10:38:06.478Z,1008.49
2018-07-20T10:39:06.483Z,1008.48
2018-07-20T10:40:06.635Z,1008.46
2018-07-20T10:41:06.499Z,1008.45
2018-07-20T10:42:06.493Z,1008.48
2018-07-20T10:43:06.521Z,1008.50
2018-07-20T10:44:06.504Z,1008.45
2018-07-20T10:45:06.711Z,1008.36
2018-07-20T10:46:06.530Z,1008.39
2018-07-20T10:47:06.528Z,1008.41
2018-07-20T10:48:06.526Z,1008.33
2018-07-20T10:49:06.533Z,1008.29
2018-07-20T10:50:06.534Z,1008.28
2018-07-20T10:51:06.551Z,1008.27
2018-07-20T10:52:06.569Z,1008.23
2018-07-20T10:53:06.554Z,1008.19
2018-07-20T10:54:06.566Z,1008.17
2018-07-20T10:55:06.564Z,1008.21
2018-07-20T10:56:06.570Z,1008.26
2018-07-20T10:57:06.579Z,1008.26
2018-07-20T10:58:06.643Z,1008.33
2018-07-20T10:59:06.589Z,1008.31
2018-07-20T11:00:06.597Z,1008.38
2018-07-20T11:01:06.600Z,1008.33
2018-07-20T11:02:06.601Z,1008.31
2018-07-20T11:03:06.608Z,1008.24
2018-07-20T11:04:06.616Z,1008.25
2018-07-20T11:05:06.618Z,1008.23
2018-07-20T11:06:06.623Z,1008.19
2018-07-20T11:07:06.626Z,1008.14
2018-07-20T11:08:06.740Z,1008.17
2018-07-20T11:09:06.630Z,1008.11
2018-07-20T11:10:06.635Z,1008.08
2018-07-20T11:11:06.637Z,1008.04
2018-07-20T11:12:06.641Z,1007.96
2018-07-20T11:13:06.644Z,1007.95
2018-07-20T11:14:06.647Z,1007.97
2018-07-20T11:15:06.656Z,1007.97
2018-07-20T11:16:06.657Z,1007.98
2018-07-20T11:17:06.665Z,1007.99
2018-07-20T11:18:06.845Z,1008.04
2018-07-20T11:19:06.680Z,1007.99
2018-07-20T11:20:06.690Z,1008.02
2018-07-20T11:21:06.677Z,1008.01
2018-07-20T11:22:06.686Z,1008.05
2018-07-20T11:23:06.686Z,1008.07
2018-07-20T11:24:06.699Z,1008.12
2018-07-20T11:25:06.696Z,1008.20
2018-07-20T11:26:06.727Z,1008.22
2018-07-20T11:27:06.713Z,1008.19
2018-07-20T11:28:06.744Z,1008.20
2018-07-20T11:29:06.713Z,1008.29
2018-07-20T11:30:06.719Z,1008.34
2018-07-20T11:31:06.855Z,1008.37
2018-07-20T11:32:06.727Z,1008.38
2018-07-20T11:33:06.732Z,1008.36
2018-07-20T11:34:06.746Z,1008.36
2018-07-20T11:35:06.740Z,1008.41
2018-07-20T11:36:06.842Z,1008.38
2018-07-20T11:37:06.767Z,1008.39
2018-07-20T11:38:06.753Z,1008.44
2018-07-20T11:39:06.770Z,1008.46
2018-07-20T11:40:06.771Z,1008.46
2018-07-20T11:41:06.762Z,1008.36
2018-07-20T11:42:06.772Z,1008.31
2018-07-20T11:43:06.775Z,1008.31
2018-07-20T11:44:06.776Z,1008.42
2018-07-20T11:45:06.787Z,1008.47
2018-07-20T11:46:06.783Z,1008.43
2018-07-20T11:47:06.792Z,1008.41
2018-07-20T11:48:06.787Z,1008.36
2018-07-20T11:49:06.926Z,1008.73
2018-07-20T11:50:06.791Z,1008.63
2018-07-20T11:51:06.807Z,1008.39
2018-07-20T11:52:09.416Z,1007.89
2018-07-20T11:53:06.796Z,1007.87
2018-07-20T11:54:06.801Z,1007.96
2018-07-20T11:55:06.814Z,1007.90
2018-07-20T11:56:06.802Z,1007.90
2018-07-20T11:57:06.802Z,1007.94
2018-07-20T11:58:06.811Z,1007.90
2018-07-20T11:59:06.801Z,1007.90
2018-07-20T12:00:06.825Z,1007.89
2018-07-20T12:01:06.803Z,1007.87
2018-07-20T12:02:06.802Z,1007.82
2018-07-20T12:03:06.800Z,1007.81
2018-07-20T12:04:06.811Z,1007.83
2018-07-20T12:05:06.798Z,1007.77
2018-07-20T12:06:06.812Z,1007.76
2018-07-20T12:07:06.808Z,1007.73
2018-07-20T12:08:06.805Z,1007.76